Time;durP1;ratioP1;P1;durP2;ratioP2;P2;SDS_P1;SDS_P2;PMS_P1;PMS_P2;Temp;Humidity;BMP_temperature;BMP_pressure;BME280_temperature;BME280_humidity;BME280_pressure;Samples;Min_cycle;Max_cycle;Signal;HPM_P1;HPM_P2
2023/11/13 00:00:37;;;;;;;10.10;6.50;;;;;;;8.32;74.10;99633.92;107963;1256;73939;-66
2023/11/13 00:03:07;;;;;;;10.20;6.90;;;;;;;8.30;73.36;99633.73;108030;1255;71831;-64
2023/11/13 00:05:35;;;;;;;9.80;6.50;;;;;;;8.32;73.37;99638.13;107973;1257;72810;-66
2023/11/13 00:08:05;;;;;;;10.90;6.40;;;;;;;8.31;72.72;99640.30;108009;1256;61076;-66
2023/11/13 00:10:33;;;;;;;10.00;6.00;;;;;;;8.28;71.83;99638.60;107975;1256;60329;-67
2023/11/13 00:13:01;;;;;;;8.70;6.30;;;;;;;8.29;71.84;99647.76;108021;1256;73859;-66
2023/11/13 00:15:29;;;;;;;8.60;5.90;;;;;;;8.29;71.69;99654.46;108044;1256;72726;-66
2023/11/13 00:17:56;;;;;;;9.20;6.10;;;;;;;8.29;71.02;99655.10;107991;1256;72728;-65
2023/11/13 00:20:24;;;;;;;7.50;5.20;;;;;;;8.28;70.55;99653.34;108006;1256;61789;-66
2023/11/13 00:22:52;;;;;;;8.80;5.90;;;;;;;8.28;70.14;99652.48;107994;1256;59291;-66
2023/11/13 00:25:20;;;;;;;9.80;5.00;;;;;;;8.26;69.46;99646.00;107985;1256;73899;-67
2023/11/13 00:27:47;;;;;;;7.60;4.70;;;;;;;8.22;69.43;99648.11;108012;1256;71457;-66
2023/11/13 00:30:16;;;;;;;8.00;5.20;;;;;;;8.19;69.33;99645.29;107985;1256;72609;-66
2023/11/13 00:32:43;;;;;;;8.60;4.70;;;;;;;8.12;69.37;99645.06;107991;1258;61682;-64
2023/11/13 00:35:11;;;;;;;8.00;5.30;;;;;;;8.04;69.22;99645.95;107963;1255;60501;-67
2023/11/13 00:37:39;;;;;;;7.80;5.10;;;;;;;7.94;69.46;99647.62;107956;1255;73883;-67
2023/11/13 00:40:07;;;;;;;8.40;5.00;;;;;;;7.89;69.70;99650.21;107962;1256;72690;-66
2023/11/13 00:42:35;;;;;;;7.80;4.80;;;;;;;7.83;69.99;99656.31;107960;1256;70523;-69
2023/11/13 00:45:03;;;;;;;7.20;4.60;;;;;;;7.77;70.32;99656.34;107944;1260;61684;-66
2023/11/13 00:47:31;;;;;;;7.30;4.80;;;;;;;7.72;70.54;99665.14;107961;1255;60562;-68
2023/11/13 00:49:58;;;;;;;7.20;4.50;;;;;;;7.68;70.72;99664.23;108001;1256;73845;-66
2023/11/13 00:52:26;;;;;;;6.90;5.00;;;;;;;7.67;70.76;99669.92;108034;1256;70422;-65
2023/11/13 00:54:56;;;;;;;7.80;4.90;;;;;;;7.70;70.86;99672.69;108011;1256;72690;-66
2023/11/13 00:57:23;;;;;;;7.00;4.60;;;;;;;7.73;70.90;99672.70;107954;1257;63203;-66
2023/11/13 00:59:53;;;;;;;6.90;4.70;;;;;;;7.76;71.07;99679.95;107931;1256;59077;-66
2023/11/13 01:02:22;;;;;;;7.30;4.40;;;;;;;7.79;71.04;99679.05;107972;1260;73913;-65
2023/11/13 01:04:49;;;;;;;6.80;4.40;;;;;;;7.79;70.83;99688.98;107697;1256;74191;-67
2023/11/13 01:07:18;;;;;;;7.30;4.10;;;;;;;7.83;70.91;99697.58;107889;1256;72697;-66
2023/11/13 01:09:46;;;;;;;7.30;4.50;;;;;;;7.85;70.86;99695.45;108016;1260;61723;-64
2023/11/13 01:12:17;;;;;;;8.30;5.20;;;;;;;7.86;70.57;99699.44;107749;1257;60404;-65
2023/11/13 01:14:45;;;;;;;7.60;4.90;;;;;;;7.88;70.55;99700.83;107909;1256;73950;-65
2023/11/13 01:17:12;;;;;;;8.00;4.40;;;;;;;7.91;70.53;99707.98;107903;1256;72846;-66
2023/11/13 01:19:40;;;;;;;7.00;4.70;;;;;;;7.92;70.51;99712.98;107949;1257;72913;-67
2023/11/13 01:22:08;;;;;;;6.80;4.60;;;;;;;7.93;70.66;99718.52;107834;1258;60481;-67
2023/11/13 01:24:36;;;;;;;7.80;4.20;;;;;;;7.92;70.71;99721.69;108028;1257;60448;-72
2023/11/13 01:27:04;;;;;;;8.00;4.70;;;;;;;7.94;70.71;99722.02;107978;1257;73899;-66
2023/11/13 01:29:33;;;;;;;8.20;4.90;;;;;;;7.93;70.45;99730.52;107817;1256;71597;-66
2023/11/13 01:32:00;;;;;;;7.70;5.00;;;;;;;7.90;70.26;99724.20;107815;1256;71811;-66
2023/11/13 01:34:28;;;;;;;8.90;5.10;;;;;;;7.91;70.49;99725.47;107836;1258;60982;-66
2023/11/13 01:36:57;;;;;;;8.00;5.40;;;;;;;7.90;70.58;99727.48;107908;1256;60303;-66
2023/11/13 01:39:25;;;;;;;7.70;4.70;;;;;;;7.88;70.81;99724.81;108058;1256;72546;-67
2023/11/13 01:41:52;;;;;;;7.80;5.30;;;;;;;7.85;70.77;99733.10;107973;1256;71253;-66
2023/11/13 01:44:20;;;;;;;7.70;5.30;;;;;;;7.84;70.84;99733.47;107758;1256;72808;-66
2023/11/13 01:46:47;;;;;;;9.90;5.80;;;;;;;7.83;71.05;99740.80;108027;1257;61790;-66
2023/11/13 01:49:15;;;;;;;8.30;5.50;;;;;;;7.82;71.18;99739.67;107984;1256;60783;-65
2023/11/13 01:51:43;;;;;;;9.50;5.70;;;;;;;7.83;71.33;99743.02;107697;1256;73787;-65
2023/11/13 01:54:10;;;;;;;9.10;6.00;;;;;;;7.81;71.63;99743.50;107999;1256;71982;-65
2023/11/13 01:56:38;;;;;;;10.80;5.70;;;;;;;7.78;71.51;99744.28;107967;1256;71977;-66
2023/11/13 01:59:05;;;;;;;9.90;6.20;;;;;;;7.76;71.64;99748.84;107863;1256;61660;-65
2023/11/13 02:01:33;;;;;;;9.20;6.10;;;;;;;7.74;71.69;99751.23;107699;1257;59621;-68
2023/11/13 02:04:01;;;;;;;11.20;6.40;;;;;;;7.72;71.93;99752.81;107708;1261;74934;-66
2023/11/13 02:06:30;;;;;;;9.10;6.10;;;;;;;7.73;72.13;99763.51;107934;1259;72673;-67
2023/11/13 02:08:58;;;;;;;10.10;6.50;;;;;;;7.73;72.26;99765.59;107950;1258;71387;-67
2023/11/13 02:11:25;;;;;;;10.40;6.60;;;;;;;7.73;72.25;99765.42;107973;1257;60523;-68
2023/11/13 02:13:53;;;;;;;9.90;6.10;;;;;;;7.73;72.34;99770.25;107961;1260;60531;-69
2023/11/13 02:16:21;;;;;;;8.90;6.00;;;;;;;7.72;72.27;99767.70;108005;1256;72920;-66
2023/11/13 02:18:48;;;;;;;9.50;6.30;;;;;;;7.73;72.46;99771.37;107914;1257;72478;-68
2023/11/13 02:21:16;;;;;;;9.00;6.10;;;;;;;7.74;72.50;99771.02;107734;1256;71533;-66
2023/11/13 02:23:45;;;;;;;11.70;7.10;;;;;;;7.73;72.47;99773.45;107865;1258;61206;-68
2023/11/13 02:26:14;;;;;;;11.40;7.80;;;;;;;7.71;72.39;99775.88;107722;1257;60460;-69
2023/11/13 02:28:42;;;;;;;11.30;7.50;;;;;;;7.71;72.39;99777.10;107826;1256;71593;-66
2023/11/13 02:31:10;;;;;;;10.60;7.50;;;;;;;7.71;72.39;99780.29;108021;1256;72507;-67
2023/11/13 02:33:38;;;;;;;11.40;7.30;;;;;;;7.71;72.74;99783.32;108018;1257;71478;-66
2023/11/13 02:36:07;;;;;;;12.30;7.40;;;;;;;7.70;72.84;99784.05;107933;1257;61876;-66
2023/11/13 02:38:35;;;;;;;12.10;7.70;;;;;;;7.68;72.78;99785.76;107769;1256;59014;-66
2023/11/13 02:41:02;;;;;;;12.60;8.00;;;;;;;7.67;72.86;99791.13;107971;1257;72134;-66
2023/11/13 02:43:30;;;;;;;11.70;7.60;;;;;;;7.67;72.99;99794.14;107974;1257;73003;-66
2023/11/13 02:45:58;;;;;;;13.10;8.40;;;;;;;7.66;73.15;99796.05;107984;1260;72711;-67
2023/11/13 02:48:25;;;;;;;11.10;7.70;;;;;;;7.68;73.25;99796.42;107767;1261;59425;-67
2023/11/13 02:50:53;;;;;;;11.60;7.50;;;;;;;7.69;73.53;99798.66;107948;1257;60525;-66
2023/11/13 02:53:22;;;;;;;11.00;7.30;;;;;;;7.65;73.62;99797.80;107920;1256;72736;-67
2023/11/13 02:55:51;;;;;;;10.80;7.00;;;;;;;7.63;73.97;99804.79;107954;1258;70652;-66
2023/11/13 02:58:18;;;;;;;12.00;7.80;;;;;;;7.59;74.27;99813.02;107771;1260;71447;-66
2023/11/13 03:00:46;;;;;;;9.90;7.00;;;;;;;7.55;74.60;99817.44;107897;1260;60464;-67
2023/11/13 03:03:14;;;;;;;13.40;7.90;;;;;;;7.52;74.90;99819.71;107942;1257;60514;-69
2023/11/13 03:05:44;;;;;;;13.00;8.30;;;;;;;7.45;75.19;99826.20;107951;1260;73352;-65
2023/11/13 03:08:13;;;;;;;12.00;8.10;;;;;;;7.39;75.46;99830.07;107917;1256;72731;-65
2023/11/13 03:10:43;;;;;;;13.70;7.90;;;;;;;7.33;75.93;99833.64;108009;1256;72526;-64
2023/11/13 03:13:32;;;;;;;11.90;8.00;;;;;;;7.28;76.19;99834.56;107834;1258;60335;-65
2023/11/13 03:16:58;;;;;;;13.00;8.60;;;;;;;7.26;76.52;99842.08;107830;1257;60291;-65
2023/11/13 03:19:26;;;;;;;13.00;8.60;;;;;;;7.23;76.74;99839.83;107958;1260;75087;-65
2023/11/13 03:21:54;;;;;;;13.80;9.20;;;;;;;7.20;76.80;99841.75;107963;1256;72681;-66
2023/11/13 03:24:22;;;;;;;15.80;9.30;;;;;;;7.19;76.93;99849.40;108020;1257;72753;-65
2023/11/13 03:26:50;;;;;;;16.00;9.90;;;;;;;7.18;77.18;99850.52;107999;1256;60466;-66
2023/11/13 03:29:17;;;;;;;13.30;9.20;;;;;;;7.15;77.24;99855.53;107925;1256;60367;-66
2023/11/13 03:31:45;;;;;;;15.00;9.80;;;;;;;7.13;77.31;99849.71;107973;1256;73871;-64
2023/11/13 03:34:13;;;;;;;15.80;10.40;;;;;;;7.10;77.35;99865.40;107969;1260;72723;-66
2023/11/13 03:36:40;;;;;;;16.10;9.60;;;;;;;7.08;77.42;99852.80;107919;1260;71433;-66
2023/11/13 03:39:08;;;;;;;16.30;10.10;;;;;;;7.06;77.54;99861.43;107683;1259;60481;-67
2023/11/13 03:41:36;;;;;;;16.80;9.70;;;;;;;7.04;77.62;99862.42;107922;1257;60028;-64
2023/11/13 03:44:04;;;;;;;17.20;10.50;;;;;;;7.02;77.76;99869.95;107906;1257;74036;-65
2023/11/13 03:46:31;;;;;;;16.90;10.10;;;;;;;7.00;77.93;99867.70;108027;1258;71451;-64
2023/11/13 03:48:59;;;;;;;14.80;10.10;;;;;;;6.98;77.95;99868.95;107901;1260;72668;-69
2023/11/13 03:51:27;;;;;;;14.10;9.90;;;;;;;6.98;78.02;99870.60;107952;1256;60978;-67
2023/11/13 03:53:54;;;;;;;14.60;10.40;;;;;;;6.96;78.15;99870.30;107714;1256;59582;-66
2023/11/13 03:56:24;;;;;;;14.90;9.90;;;;;;;6.97;78.42;99874.88;107997;1260;73798;-64
2023/11/13 03:58:52;;;;;;;17.50;10.80;;;;;;;6.95;78.45;99873.05;108011;1257;71150;-67
2023/11/13 04:01:19;;;;;;;17.00;10.90;;;;;;;6.94;78.59;99878.83;107950;1260;72768;-67
2023/11/13 04:03:47;;;;;;;15.70;10.30;;;;;;;6.93;78.68;99885.56;108020;1257;60325;-67
2023/11/13 04:06:15;;;;;;;14.20;10.20;;;;;;;6.92;78.80;99885.23;107981;1260;60349;-65
2023/11/13 04:08:44;;;;;;;15.80;10.50;;;;;;;6.89;78.85;99887.64;108016;1258;73824;-66
2023/11/13 04:11:12;;;;;;;16.50;10.90;;;;;;;6.88;78.95;99891.83;107990;1257;72748;-64
2023/11/13 04:13:40;;;;;;;16.00;10.70;;;;;;;6.86;78.88;99894.89;107975;1259;71277;-64
2023/11/13 04:16:07;;;;;;;16.30;10.90;;;;;;;6.85;79.06;99903.00;107994;1257;60267;-66
2023/11/13 04:18:36;;;;;;;16.70;11.20;;;;;;;6.84;78.99;99902.03;108011;1257;60342;-66
2023/11/13 04:21:04;;;;;;;17.60;11.40;;;;;;;6.84;79.15;99906.80;108060;1257;73879;-68
2023/11/13 04:23:32;;;;;;;16.50;10.90;;;;;;;6.85;79.29;99904.27;108019;1258;72695;-66
2023/11/13 04:26:00;;;;;;;17.40;11.60;;;;;;;6.84;79.26;99912.08;108003;1256;72746;-67
2023/11/13 04:28:30;;;;;;;17.30;12.00;;;;;;;6.83;79.27;99912.16;107986;1257;61037;-67
2023/11/13 04:31:00;;;;;;;18.30;11.10;;;;;;;6.80;79.35;99916.27;108003;1257;59452;-67
2023/11/13 04:33:28;;;;;;;17.60;11.40;;;;;;;6.78;79.26;99922.52;107981;1257;72993;-67
2023/11/13 04:35:57;;;;;;;16.30;11.20;;;;;;;6.77;79.20;99928.27;107973;1257;71986;-68
2023/11/13 04:38:25;;;;;;;17.10;11.50;;;;;;;6.76;79.29;99927.52;107901;1257;72852;-67
2023/11/13 04:40:53;;;;;;;18.30;11.00;;;;;;;6.74;79.27;99934.89;107882;1256;60201;-71
2023/11/13 04:43:21;;;;;;;17.00;11.80;;;;;;;6.71;79.12;99938.02;107987;1256;60333;-65
2023/11/13 04:45:50;;;;;;;16.30;11.10;;;;;;;6.70;79.14;99941.25;107946;1257;73979;-67
2023/11/13 04:48:17;;;;;;;15.70;10.80;;;;;;;6.70;79.22;99945.77;107933;1257;71812;-66
2023/11/13 04:50:45;;;;;;;16.70;10.00;;;;;;;6.67;79.08;99950.98;107934;1258;72703;-67
2023/11/13 04:53:13;;;;;;;15.50;10.60;;;;;;;6.66;79.21;99953.79;107971;1258;61015;-66
2023/11/13 04:55:41;;;;;;;15.70;10.50;;;;;;;6.66;79.35;99953.73;107911;1257;60293;-66
2023/11/13 04:58:09;;;;;;;15.90;11.50;;;;;;;6.64;79.24;99956.55;107958;1260;75186;-67
2023/11/13 05:00:37;;;;;;;17.20;11.60;;;;;;;6.64;79.37;99965.54;107810;1260;71802;-65
2023/11/13 05:03:05;;;;;;;16.80;12.00;;;;;;;6.65;79.32;99973.63;107890;1260;72723;-67
2023/11/13 05:05:36;;;;;;;16.30;10.90;;;;;;;6.64;79.42;99978.76;107905;1256;63053;-67
2023/11/13 05:08:05;;;;;;;16.20;11.10;;;;;;;6.63;79.49;99979.42;107803;1260;60488;-66
2023/11/13 05:10:33;;;;;;;15.70;10.70;;;;;;;6.62;79.48;99980.38;107962;1256;73858;-67
2023/11/13 05:13:01;;;;;;;15.00;11.00;;;;;;;6.61;79.44;99981.30;107922;1260;73666;-65
2023/11/13 05:15:29;;;;;;;16.30;10.90;;;;;;;6.61;79.51;99987.67;107877;1257;72931;-66
2023/11/13 05:17:57;;;;;;;16.70;11.40;;;;;;;6.62;79.66;99991.40;107991;1257;60314;-66
2023/11/13 05:20:25;;;;;;;15.80;10.70;;;;;;;6.61;79.60;99996.06;107937;1257;60318;-66
2023/11/13 05:22:52;;;;;;;14.00;10.30;;;;;;;6.62;79.64;100002.52;107858;1256;73829;-65
2023/11/13 05:25:20;;;;;;;15.50;10.40;;;;;;;6.64;79.76;100011.61;107855;1257;71182;-68
2023/11/13 05:27:48;;;;;;;18.50;10.40;;;;;;;6.66;79.82;100011.05;107903;1256;72898;-65
2023/11/13 05:30:16;;;;;;;16.20;10.20;;;;;;;6.67;79.81;100017.11;107819;1257;60329;-65
2023/11/13 05:32:44;;;;;;;14.90;9.90;;;;;;;6.69;79.78;100017.04;107814;1257;60528;-65
2023/11/13 05:35:12;;;;;;;16.10;10.40;;;;;;;6.68;79.72;100022.27;107912;1257;73875;-65
2023/11/13 05:37:39;;;;;;;15.10;10.40;;;;;;;6.70;79.62;100021.61;107759;1257;72989;-65
2023/11/13 05:40:07;;;;;;;15.00;10.20;;;;;;;6.70;79.37;100034.62;107819;1257;71499;-67
2023/11/13 05:42:36;;;;;;;13.60;10.20;;;;;;;6.70;79.40;100039.83;107900;1256;60313;-67
2023/11/13 05:45:04;;;;;;;16.80;11.10;;;;;;;6.67;79.47;100028.20;107765;1257;60404;-65
2023/11/13 05:47:32;;;;;;;13.90;10.30;;;;;;;6.68;79.40;100044.68;107968;1256;72622;-65
2023/11/13 05:49:59;;;;;;;14.30;9.80;;;;;;;6.68;79.43;100042.92;108007;1257;71869;-65
2023/11/13 05:52:29;;;;;;;15.60;11.20;;;;;;;6.67;79.51;100046.67;107929;1257;71404;-65
2023/11/13 05:54:57;;;;;;;14.10;10.50;;;;;;;6.68;79.30;100044.61;107833;1257;60392;-66
2023/11/13 05:57:24;;;;;;;14.10;10.40;;;;;;;6.69;79.45;100045.33;107948;1258;60384;-66
2023/11/13 05:59:52;;;;;;;16.80;10.90;;;;;;;6.69;79.61;100053.45;107876;1257;73942;-66
2023/11/13 06:02:20;;;;;;;15.60;10.00;;;;;;;6.67;79.83;100052.95;107982;1255;72565;-66
2023/11/13 06:04:49;;;;;;;14.70;11.00;;;;;;;6.69;79.85;100056.48;107929;1257;71661;-66
2023/11/13 06:07:16;;;;;;;14.10;10.50;;;;;;;6.71;79.73;100066.41;107784;1256;60874;-67
2023/11/13 06:09:44;;;;;;;15.80;10.80;;;;;;;6.73;79.62;100063.38;107798;1256;60515;-67
2023/11/13 06:12:13;;;;;;;16.00;11.00;;;;;;;6.77;79.50;100064.35;107900;1256;73857;-67
2023/11/13 06:14:41;;;;;;;17.10;10.10;;;;;;;6.77;79.32;100068.79;107800;1257;71246;-66
2023/11/13 06:17:10;;;;;;;13.40;9.70;;;;;;;6.78;79.20;100063.86;107828;1257;72522;-67
2023/11/13 06:19:40;;;;;;;14.30;10.30;;;;;;;6.80;79.05;100070.96;107925;1256;60906;-67
2023/11/13 06:22:11;;;;;;;15.10;10.30;;;;;;;6.84;79.13;100077.40;107783;1256;60335;-67
2023/11/13 06:24:38;;;;;;;18.30;10.80;;;;;;;6.86;79.04;100075.51;107921;1257;73806;-66
2023/11/13 06:27:06;;;;;;;12.20;9.10;;;;;;;6.89;78.86;100074.05;107745;1260;72974;-67
2023/11/13 06:29:34;;;;;;;14.10;9.80;;;;;;;6.92;78.74;100076.34;107949;1256;72794;-66
2023/11/13 06:32:02;;;;;;;12.30;9.10;;;;;;;6.95;78.38;100079.94;107932;1256;60887;-66
2023/11/13 06:34:30;;;;;;;16.30;9.90;;;;;;;6.97;78.19;100083.99;107945;1255;62501;-65
2023/11/13 06:36:57;;;;;;;12.80;9.60;;;;;;;6.98;77.89;100083.44;107900;1256;72545;-65
2023/11/13 06:39:26;;;;;;;13.70;9.90;;;;;;;6.98;77.63;100090.72;107929;1256;71535;-67
2023/11/13 06:41:54;;;;;;;12.80;9.40;;;;;;;6.98;77.52;100090.13;107764;1257;71490;-67
2023/11/13 06:44:22;;;;;;;13.70;9.30;;;;;;;6.99;77.44;100094.00;107982;1256;60322;-67
2023/11/13 06:46:49;;;;;;;15.00;9.40;;;;;;;6.99;77.34;100089.91;107933;1256;60009;-66
2023/11/13 06:49:19;;;;;;;12.20;9.60;;;;;;;6.97;77.21;100089.80;107934;1256;72652;-66
2023/11/13 06:51:48;;;;;;;11.40;9.30;;;;;;;6.97;77.32;100090.36;107836;1256;72944;-67
2023/11/13 06:54:17;;;;;;;13.70;9.50;;;;;;;6.96;77.19;100090.73;107834;1258;71999;-66
2023/11/13 06:56:44;;;;;;;13.90;8.60;;;;;;;6.95;77.25;100095.87;107820;1255;59896;-67
2023/11/13 06:59:12;;;;;;;13.80;9.30;;;;;;;6.93;77.18;100095.95;107875;1257;60369;-65
2023/11/13 07:01:40;;;;;;;14.70;9.50;;;;;;;6.92;77.30;100098.97;107982;1256;73834;-65
2023/11/13 07:04:12;;;;;;;11.90;8.00;;;;;;;6.96;77.56;100101.39;107936;1256;72889;-66
2023/11/13 07:06:41;;;;;;;13.60;9.00;;;;;;;7.01;77.60;100100.93;107822;1256;71934;-65
2023/11/13 07:09:11;;;;;;;12.40;8.90;;;;;;;7.08;77.40;100101.41;107776;1257;60970;-67
2023/11/13 07:11:42;;;;;;;12.40;8.90;;;;;;;7.17;76.99;100102.92;107874;1256;60375;-66
2023/11/13 07:14:16;;;;;;;10.80;8.40;;;;;;;7.28;76.62;100105.08;107846;1256;73828;-67
2023/11/13 07:16:44;;;;;;;9.80;7.80;;;;;;;7.42;76.28;100105.30;107814;1256;75275;-67
2023/11/13 07:19:17;;;;;;;12.30;8.10;;;;;;;7.58;75.81;100101.41;107922;1256;72808;-67
2023/11/13 07:21:45;;;;;;;10.70;8.20;;;;;;;7.71;74.40;100102.84;107853;1256;61765;-66
2023/11/13 07:24:13;;;;;;;10.40;8.50;;;;;;;7.82;73.15;100100.61;108055;1256;60425;-66
2023/11/13 07:26:40;;;;;;;10.80;8.10;;;;;;;7.89;72.27;100098.89;92742;1254;10002231;-65
2023/11/13 07:29:09;;;;;;;10.00;7.50;;;;;;;7.96;71.53;100102.41;107700;1255;59509;-67
2023/11/13 07:31:38;;;;;;;10.00;7.30;;;;;;;8.07;71.48;100092.25;108287;1256;73926;-66
2023/11/13 07:34:11;;;;;;;12.60;7.40;;;;;;;8.22;70.84;100092.70;107745;1256;71472;-67
2023/11/13 07:36:58;;;;;;;10.40;7.10;;;;;;;8.38;69.47;100098.92;107727;1256;72757;-65
2023/11/13 07:39:31;;;;;;;10.30;7.40;;;;;;;8.55;68.53;100102.48;107687;1257;62197;-66
2023/11/13 07:42:03;;;;;;;10.10;7.20;;;;;;;8.73;67.98;100105.45;108261;1256;60461;-65
2023/11/13 07:44:31;;;;;;;8.80;6.60;;;;;;;8.91;66.77;100097.67;107748;1256;72816;-66
2023/11/13 07:47:15;;;;;;;9.90;6.60;;;;;;;9.03;65.33;100094.83;107701;1256;72530;-67
2023/11/13 07:49:57;;;;;;;10.10;7.00;;;;;;;9.08;64.86;100093.86;107613;1254;71485;-66
2023/11/13 07:52:35;;;;;;;10.50;7.10;;;;;;;9.11;64.44;100089.75;107749;1256;60461;-66
2023/11/13 07:55:12;;;;;;;10.50;7.30;;;;;;;9.13;64.32;100091.52;107721;1256;62325;-65
2023/11/13 07:57:48;;;;;;;10.00;7.10;;;;;;;9.14;63.79;100093.23;107810;1256;73994;-65
2023/11/13 08:00:27;;;;;;;9.70;7.10;;;;;;;9.15;63.73;100093.09;107732;1256;71431;-66
2023/11/13 08:03:06;;;;;;;9.30;7.50;;;;;;;9.15;63.19;100097.14;107644;1256;73594;-66
2023/11/13 08:05:43;;;;;;;10.70;8.50;;;;;;;9.15;63.39;100092.25;107755;1257;60573;-66
2023/11/13 08:08:15;;;;;;;10.70;8.10;;;;;;;9.17;63.62;100089.10;107660;1260;60707;-65
2023/11/13 08:10:51;;;;;;;9.80;8.20;;;;;;;9.22;63.71;100096.04;107660;1257;72655;-65
2023/11/13 08:13:27;;;;;;;9.70;7.30;;;;;;;9.27;63.92;100090.95;107722;1256;72916;-65
2023/11/13 08:16:08;;;;;;;10.10;8.00;;;;;;;9.34;63.65;100095.27;108080;1256;72682;-65
2023/11/13 08:18:45;;;;;;;10.30;7.90;;;;;;;9.16;63.69;100099.01;108786;1256;63731;-65
2023/11/13 08:21:24;;;;;;;11.80;8.40;;;;;;;9.04;64.18;100091.75;107738;1256;60899;-67
2023/11/13 08:23:59;;;;;;;11.70;8.20;;;;;;;8.99;64.75;100099.39;107740;1256;73861;-64
2023/11/13 08:26:43;;;;;;;11.50;8.30;;;;;;;8.95;64.86;100104.04;107696;1256;75080;-65
2023/11/13 08:29:15;;;;;;;10.50;7.80;;;;;;;8.90;64.95;100108.12;107687;1256;71477;-65
2023/11/13 08:31:43;;;;;;;12.00;8.30;;;;;;;8.89;65.06;100109.09;107805;1256;61683;-66
2023/11/13 08:34:10;;;;;;;12.40;8.20;;;;;;;8.87;65.10;100109.32;107660;1255;59999;-66
2023/11/13 08:36:38;;;;;;;10.00;7.80;;;;;;;8.89;65.37;100101.30;107758;1256;74729;-65
2023/11/13 08:39:07;;;;;;;11.30;8.20;;;;;;;8.90;65.51;100093.20;107649;1260;71192;-65
2023/11/13 08:41:36;;;;;;;11.10;7.90;;;;;;;8.89;65.39;100096.39;107668;1256;71432;-65
2023/11/13 08:44:04;;;;;;;11.00;8.60;;;;;;;8.87;65.58;100093.55;107553;1261;60986;-66
2023/11/13 08:46:33;;;;;;;11.60;8.90;;;;;;;8.88;65.84;100093.23;107648;1256;60355;-66
2023/11/13 08:49:03;;;;;;;11.20;8.80;;;;;;;8.90;66.04;100090.98;107661;1257;73976;-65
2023/11/13 08:51:33;;;;;;;10.90;8.10;;;;;;;8.89;66.15;100089.70;107721;1255;72837;-64
2023/11/13 08:54:01;;;;;;;10.60;8.20;;;;;;;8.90;66.17;100093.64;107742;1256;72679;-66
2023/11/13 08:56:29;;;;;;;10.30;8.40;;;;;;;8.98;66.43;100096.66;107691;1256;60519;-65
2023/11/13 08:58:58;;;;;;;11.50;8.80;;;;;;;9.10;66.20;100105.15;107663;1255;60809;-65
2023/11/13 09:01:27;;;;;;;10.30;8.10;;;;;;;9.22;66.09;100104.41;107638;1256;72602;-66
2023/11/13 09:03:55;;;;;;;9.40;7.90;;;;;;;9.31;65.12;100099.19;107644;1256;73168;-66
2023/11/13 09:06:23;;;;;;;10.80;8.80;;;;;;;9.35;64.80;100096.95;107669;1257;72675;-66
2023/11/13 09:08:53;;;;;;;10.70;8.40;;;;;;;9.38;64.30;100091.33;107499;1256;60529;-65
2023/11/13 09:11:22;;;;;;;12.10;8.40;;;;;;;9.43;64.02;100091.98;107654;1256;60986;-64
2023/11/13 09:13:51;;;;;;;12.70;8.90;;;;;;;9.51;63.59;100083.33;107770;1255;72921;-65
2023/11/13 09:16:19;;;;;;;11.70;8.60;;;;;;;9.54;62.95;100082.05;107773;1256;74031;-66
2023/11/13 09:18:54;;;;;;;11.50;8.20;;;;;;;9.59;62.84;100079.46;107787;1256;71499;-66
2023/11/13 09:21:23;;;;;;;11.80;8.30;;;;;;;9.69;62.87;100080.20;107761;1256;60458;-66
2023/11/13 09:23:50;;;;;;;12.00;9.00;;;;;;;9.75;62.21;100083.73;107732;1254;60446;-67
2023/11/13 09:26:18;;;;;;;12.70;9.10;;;;;;;9.72;61.89;100086.45;107719;1255;72622;-67
2023/11/13 09:28:46;;;;;;;11.10;8.80;;;;;;;9.70;61.97;100090.17;107736;1256;74859;-66
2023/11/13 09:31:14;;;;;;;10.80;8.60;;;;;;;9.68;62.34;100091.76;107691;1256;74922;-67
2023/11/13 09:33:43;;;;;;;10.90;8.00;;;;;;;9.69;62.57;100092.36;107656;1256;61730;-66
2023/11/13 09:36:12;;;;;;;13.20;9.00;;;;;;;9.76;62.08;100090.61;107731;1256;59850;-67
2023/11/13 09:38:40;;;;;;;12.40;9.00;;;;;;;9.83;61.95;100091.00;107765;1254;74369;-64
2023/11/13 09:41:07;;;;;;;11.20;9.00;;;;;;;9.85;61.64;100082.91;107903;1254;72752;-67
2023/11/13 09:43:35;;;;;;;11.00;8.50;;;;;;;9.86;61.58;100091.54;107582;1256;73236;-67
2023/11/13 09:46:06;;;;;;;10.20;8.20;;;;;;;9.92;61.38;100094.53;107632;1255;60743;-65
2023/11/13 09:48:35;;;;;;;10.60;7.90;;;;;;;10.07;61.17;100084.00;108973;1255;62247;-65
2023/11/13 09:51:03;;;;;;;11.50;8.10;;;;;;;10.24;60.67;100093.54;108614;1256;72682;-66
2023/11/13 09:53:42;;;;;;;12.70;7.90;;;;;;;10.41;60.38;100090.20;107637;1255;72858;-67
2023/11/13 09:56:12;;;;;;;9.90;7.70;;;;;;;10.52;59.22;100090.14;107693;1257;74884;-66
2023/11/13 09:58:39;;;;;;;11.70;7.90;;;;;;;10.48;58.22;100074.55;107724;1256;60583;-66
2023/11/13 10:01:08;;;;;;;9.00;7.60;;;;;;;10.43;58.11;100076.85;107777;1255;62691;-66
2023/11/13 10:03:38;;;;;;;10.60;8.20;;;;;;;10.42;58.25;100071.71;107775;1255;74155;-66
2023/11/13 10:06:09;;;;;;;9.10;7.50;;;;;;;10.42;58.01;100070.96;107674;1256;73880;-66
2023/11/13 10:08:46;;;;;;;9.00;7.60;;;;;;;10.43;57.72;100069.64;107553;1257;71911;-66
2023/11/13 10:11:15;;;;;;;10.20;7.30;;;;;;;10.45;57.34;100067.02;107612;1257;60372;-66
2023/11/13 10:13:44;;;;;;;8.40;6.50;;;;;;;10.57;57.62;100061.89;107645;1256;60391;-67
2023/11/13 10:16:18;;;;;;;7.10;5.40;;;;;;;10.75;57.24;100058.76;107679;1260;73956;-66
2023/11/13 10:18:46;;;;;;;7.40;5.60;;;;;;;10.92;56.53;100063.10;107751;1256;72506;-66
2023/11/13 10:21:35;;;;;;;7.80;5.70;;;;;;;11.02;55.70;100063.52;107779;1254;72742;-67
2023/11/13 10:24:17;;;;;;;8.10;5.90;;;;;;;10.98;54.64;100063.90;107558;1255;60326;-66
2023/11/13 10:27:01;;;;;;;6.60;5.40;;;;;;;10.87;53.84;100069.22;107739;1260;60312;-66
2023/11/13 10:29:32;;;;;;;8.50;6.30;;;;;;;10.82;54.15;100077.66;107703;1255;76230;-65
2023/11/13 10:32:01;;;;;;;6.40;5.50;;;;;;;10.87;54.94;100075.63;107810;1256;71469;-67
2023/11/13 10:34:43;;;;;;;7.70;5.60;;;;;;;10.91;54.93;100074.70;107976;1256;72721;-67
2023/11/13 10:37:12;;;;;;;7.30;5.80;;;;;;;10.85;55.00;100085.03;107916;1255;60546;-67
2023/11/13 10:39:42;;;;;;;7.60;5.60;;;;;;;10.76;55.43;100080.45;107912;1256;60448;-67
2023/11/13 10:42:22;;;;;;;7.10;5.60;;;;;;;10.68;55.58;100087.84;107784;1256;73542;-70
2023/11/13 10:44:51;;;;;;;7.40;4.80;;;;;;;10.61;55.03;100089.17;107634;1255;73137;-68
2023/11/13 10:47:21;;;;;;;6.40;4.80;;;;;;;10.54;54.67;100085.55;107882;1256;72749;-66
2023/11/13 10:49:54;;;;;;;7.00;4.60;;;;;;;10.49;54.73;100088.48;107882;1256;60301;-67
2023/11/13 10:52:21;;;;;;;6.90;4.60;;;;;;;10.45;54.73;100083.63;107770;1256;61016;-68
2023/11/13 10:54:51;;;;;;;6.50;4.60;;;;;;;10.46;55.08;100075.89;107873;1256;73760;-67
2023/11/13 10:57:19;;;;;;;6.50;4.40;;;;;;;10.45;54.82;100075.78;107951;1256;73063;-68
2023/11/13 10:59:49;;;;;;;5.90;4.50;;;;;;;10.45;54.88;100083.67;107930;1256;72784;-66
2023/11/13 11:02:26;;;;;;;6.30;3.90;;;;;;;10.44;54.44;100080.11;107747;1256;60530;-66
2023/11/13 11:04:56;;;;;;;8.20;4.90;;;;;;;10.41;54.75;100085.66;107949;1256;61922;-66
2023/11/13 11:07:26;;;;;;;6.50;5.00;;;;;;;10.41;55.12;100085.98;107872;1255;75609;-68
2023/11/13 11:10:00;;;;;;;6.70;5.10;;;;;;;10.41;55.66;100088.23;107993;1256;71601;-66
2023/11/13 11:12:31;;;;;;;8.10;5.70;;;;;;;10.36;55.75;100081.44;107797;1255;71673;-67
2023/11/13 11:15:17;;;;;;;8.90;5.90;;;;;;;10.31;55.85;100083.30;107842;1256;60318;-68
2023/11/13 11:17:53;;;;;;;8.40;4.90;;;;;;;10.26;55.31;100088.74;107820;1256;60336;-66
2023/11/13 11:20:26;;;;;;;7.60;4.80;;;;;;;10.21;55.05;100093.10;107946;1255;72889;-65
2023/11/13 11:22:58;;;;;;;6.90;4.40;;;;;;;10.16;55.52;100095.64;107867;1256;72481;-66
2023/11/13 11:25:28;;;;;;;7.50;4.50;;;;;;;10.14;55.84;100089.30;107817;1256;71612;-68
2023/11/13 11:27:56;;;;;;;6.60;4.90;;;;;;;10.13;56.03;100103.87;107808;1257;60442;-67
2023/11/13 11:30:24;;;;;;;6.90;4.80;;;;;;;10.13;56.10;100102.91;107837;1256;60469;-68
2023/11/13 11:32:56;;;;;;;6.80;4.60;;;;;;;10.16;56.49;100099.23;108059;1256;73006;-66